Time;durP1;ratioP1;P1;durP2;ratioP2;P2;SDS_P1;SDS_P2;PMS_P1;PMS_P2;Temp;Humidity;BMP_temperature;BMP_pressure;BME280_temperature;BME280_humidity;BME280_pressure;Samples;Min_cycle;Max_cycle;Signal;HPM_P1;HPM_P2
2022/11/12 00:00:58;;;;;;;24.60;17.13;;;;;;;;;;5100205;28;20213;-66
2022/11/12 00:03:26;;;;;;;24.60;16.50;;;;;;;;;;5100172;28;20268;-65
2022/11/12 00:05:56;;;;;;;23.33;15.23;;;;;;;;;;5100319;28;20206;-65
2022/11/12 00:08:23;;;;;;;21.03;16.07;;;;;;;;;;5099873;28;20669;-66
2022/11/12 00:10:52;;;;;;;26.30;15.73;;;;;;;;;;5099730;28;20259;-66
2022/11/12 00:13:20;;;;;;;21.63;14.73;;;;;;;;;;5098144;28;20201;-66
2022/11/12 00:15:48;;;;;;;19.37;14.27;;;;;;;;;;5099016;28;20198;-66
2022/11/12 00:18:16;;;;;;;21.40;15.00;;;;;;;;;;5099712;28;20206;-66
2022/11/12 00:20:44;;;;;;;20.37;14.93;;;;;;;;;;5099996;28;20213;-66
2022/11/12 00:23:13;;;;;;;23.27;15.30;;;;;;;;;;5099463;28;20708;-66
2022/11/12 00:25:41;;;;;;;19.60;13.87;;;;;;;;;;5099669;28;20229;-66
2022/11/12 00:28:10;;;;;;;24.57;14.93;;;;;;;;;;5099504;28;20206;-66
2022/11/12 00:30:39;;;;;;;24.03;15.40;;;;;;;;;;5099530;28;20550;-66
2022/11/12 00:33:07;;;;;;;20.80;14.67;;;;;;;;;;5099723;28;20287;-66
2022/11/12 00:35:37;;;;;;;21.77;13.73;;;;;;;;;;5099435;28;20214;-66
2022/11/12 00:38:05;;;;;;;19.40;13.67;;;;;;;;;;5099186;28;20207;-66
2022/11/12 00:40:34;;;;;;;18.97;14.10;;;;;;;;;;5099348;28;20595;-66
2022/11/12 00:43:02;;;;;;;19.57;13.87;;;;;;;;;;5098816;28;20243;-66
2022/11/12 00:45:30;;;;;;;17.83;13.87;;;;;;;;;;5098506;28;20202;-66
2022/11/12 00:47:58;;;;;;;21.57;14.97;;;;;;;;;;5099161;28;20256;-66
2022/11/12 00:50:26;;;;;;;21.43;13.80;;;;;;;;;;5099465;28;20205;-66
2022/11/12 00:52:54;;;;;;;18.30;13.20;;;;;;;;;;5099411;28;20208;-66
2022/11/12 00:55:22;;;;;;;22.67;13.27;;;;;;;;;;5099329;28;20230;-66
2022/11/12 00:57:51;;;;;;;18.80;12.97;;;;;;;;;;5098550;28;20708;-66
2022/11/12 01:00:19;;;;;;;19.50;12.77;;;;;;;;;;5099227;28;20208;-66
2022/11/12 01:02:47;;;;;;;19.87;13.40;;;;;;;;;;5098866;28;20229;-66
2022/11/12 01:05:18;;;;;;;21.80;13.70;;;;;;;;;;5098848;28;20244;-66
2022/11/12 01:07:46;;;;;;;20.73;13.40;;;;;;;;;;5098900;28;20244;-66
2022/11/12 01:10:21;;;;;;;19.47;13.20;;;;;;;;;;5099459;28;20205;-66
2022/11/12 01:12:49;;;;;;;22.47;14.60;;;;;;;;;;5098341;28;20206;-66
2022/11/12 01:15:18;;;;;;;22.90;14.87;;;;;;;;;;5097748;28;20221;-66
2022/11/12 01:17:46;;;;;;;23.87;14.27;;;;;;;;;;5086175;28;20209;-66
2022/11/12 01:20:14;;;;;;;24.90;15.03;;;;;;;;;;5098738;28;20208;-66
2022/11/12 01:22:42;;;;;;;22.77;15.30;;;;;;;;;;5098631;28;20221;-66
2022/11/12 01:25:10;;;;;;;29.73;15.73;;;;;;;;;;5098465;28;20230;-65
2022/11/12 01:27:38;;;;;;;23.37;14.77;;;;;;;;;;5097996;28;20209;-66
2022/11/12 01:30:06;;;;;;;23.60;15.47;;;;;;;;;;5098398;28;20661;-66
2022/11/12 01:32:37;;;;;;;25.10;15.40;;;;;;;;;;5098627;28;20209;-66
2022/11/12 01:35:05;;;;;;;25.27;15.90;;;;;;;;;;5098826;28;20222;-66
2022/11/12 01:37:33;;;;;;;22.57;15.13;;;;;;;;;;5098482;28;20211;-66
2022/11/12 01:40:01;;;;;;;25.03;16.40;;;;;;;;;;5098258;28;20210;-66
2022/11/12 01:42:30;;;;;;;23.73;16.17;;;;;;;;;;5098145;28;20206;-66
2022/11/12 01:44:58;;;;;;;23.20;15.03;;;;;;;;;;5096920;28;20233;-66
2022/11/12 01:47:29;;;;;;;22.77;15.67;;;;;;;;;;5098227;28;20209;-66
2022/11/12 01:50:00;;;;;;;23.73;15.70;;;;;;;;;;5097593;28;20211;-66
2022/11/12 01:52:29;;;;;;;27.73;15.83;;;;;;;;;;5098274;28;20216;-66
2022/11/12 01:55:00;;;;;;;23.53;15.33;;;;;;;;;;5098154;28;20236;-66
2022/11/12 01:57:32;;;;;;;27.23;15.87;;;;;;;;;;5097572;28;20252;-66
2022/11/12 02:00:05;;;;;;;23.40;15.33;;;;;;;;;;5098257;28;20206;-66
2022/11/12 02:02:34;;;;;;;28.97;16.13;;;;;;;;;;5098457;28;20211;-66
2022/11/12 02:05:04;;;;;;;27.80;16.03;;;;;;;;;;5098003;28;20229;-66
2022/11/12 02:07:33;;;;;;;25.77;16.83;;;;;;;;;;5097938;28;20665;-66
2022/11/12 02:10:02;;;;;;;28.87;17.10;;;;;;;;;;5097767;28;20637;-66
2022/11/12 02:15:15;;;;;;;30.40;16.80;;;;;;;;;;5096206;28;20227;-66
2022/11/12 02:17:43;;;;;;;26.63;16.00;;;;;;;;;;5085277;28;20202;-66
2022/11/12 02:20:13;;;;;;;28.03;17.53;;;;;;;;;;5097907;28;20206;-66
2022/11/12 02:22:42;;;;;;;24.77;15.13;;;;;;;;;;5096881;28;20201;-66
2022/11/12 02:25:12;;;;;;;40.03;18.33;;;;;;;;;;5097791;28;20231;-66
2022/11/12 02:27:40;;;;;;;28.13;16.27;;;;;;;;;;5097459;28;20205;-66
2022/11/12 02:30:08;;;;;;;23.37;15.73;;;;;;;;;;5097689;28;20673;-66
2022/11/12 02:32:36;;;;;;;29.37;16.43;;;;;;;;;;5097704;28;20217;-65
2022/11/12 02:35:04;;;;;;;29.93;17.03;;;;;;;;;;5097781;28;20225;-65
2022/11/12 02:37:32;;;;;;;31.67;16.70;;;;;;;;;;5097595;28;20645;-66
2022/11/12 02:40:02;;;;;;;29.53;16.77;;;;;;;;;;5097788;28;20212;-66
2022/11/12 02:42:30;;;;;;;32.53;17.87;;;;;;;;;;5097318;28;20283;-66
2022/11/12 02:44:57;;;;;;;27.67;16.93;;;;;;;;;;5096937;28;20229;-66
2022/11/12 02:47:25;;;;;;;25.17;15.83;;;;;;;;;;5097374;28;20201;-66
2022/11/12 02:49:53;;;;;;;38.73;16.20;;;;;;;;;;5097454;28;20661;-66
2022/11/12 02:52:22;;;;;;;25.27;16.87;;;;;;;;;;5097775;28;20210;-65
2022/11/12 02:54:50;;;;;;;29.47;17.37;;;;;;;;;;5097678;28;20225;-66
2022/11/12 02:57:19;;;;;;;36.10;17.33;;;;;;;;;;5096877;28;20319;-66
2022/11/12 02:59:47;;;;;;;25.07;15.23;;;;;;;;;;5097721;28;20231;-66
2022/11/12 03:02:15;;;;;;;28.03;15.73;;;;;;;;;;5101622;28;20214;-65
2022/11/12 03:04:43;;;;;;;23.73;15.63;;;;;;;;;;5101377;28;20240;-66
2022/11/12 03:07:16;;;;;;;27.13;15.53;;;;;;;;;;5088468;28;20209;-65
2022/11/12 03:09:44;;;;;;;38.83;15.93;;;;;;;;;;5101330;28;20205;-66
2022/11/12 03:12:13;;;;;;;34.83;16.40;;;;;;;;;;5100922;28;20202;-66
2022/11/12 03:14:43;;;;;;;36.73;16.30;;;;;;;;;;5099006;28;20231;-66
2022/11/12 03:17:11;;;;;;;30.90;14.77;;;;;;;;;;5099901;28;20202;-66
2022/11/12 03:19:39;;;;;;;26.10;15.90;;;;;;;;;;5101159;28;20664;-66
2022/11/12 03:22:07;;;;;;;28.47;15.57;;;;;;;;;;5101187;28;20210;-66
2022/11/12 03:24:35;;;;;;;26.13;15.73;;;;;;;;;;5100869;28;20240;-66
2022/11/12 03:27:03;;;;;;;29.40;15.20;;;;;;;;;;5100526;28;20217;-66
2022/11/12 03:29:31;;;;;;;35.23;14.90;;;;;;;;;;5100803;28;20291;-66
2022/11/12 03:32:00;;;;;;;23.97;14.90;;;;;;;;;;5101081;28;20212;-66
2022/11/12 03:34:28;;;;;;;23.90;15.53;;;;;;;;;;5100832;28;20217;-66
2022/11/12 03:36:56;;;;;;;21.83;14.37;;;;;;;;;;5101004;28;20209;-66
2022/11/12 03:39:24;;;;;;;35.37;16.00;;;;;;;;;;5100521;28;20685;-66
2022/11/12 03:41:51;;;;;;;26.60;15.67;;;;;;;;;;5100540;28;20214;-66
2022/11/12 03:44:19;;;;;;;29.97;14.70;;;;;;;;;;5099624;28;20225;-66
2022/11/12 03:46:47;;;;;;;26.50;16.30;;;;;;;;;;5100696;28;20212;-66
2022/11/12 03:49:17;;;;;;;24.50;15.53;;;;;;;;;;5100372;28;20209;-66
2022/11/12 03:51:45;;;;;;;23.97;16.23;;;;;;;;;;5100384;28;20782;-66
2022/11/12 03:54:13;;;;;;;25.80;15.80;;;;;;;;;;5100163;28;20225;-66
2022/11/12 03:56:41;;;;;;;22.57;15.97;;;;;;;;;;5099814;28;20287;-66
2022/11/12 03:59:09;;;;;;;23.83;15.90;;;;;;;;;;5100334;28;20566;-66
2022/11/12 04:01:37;;;;;;;28.30;17.10;;;;;;;;;;5098810;28;20205;-66
2022/11/12 04:04:05;;;;;;;22.37;15.77;;;;;;;;;;5099266;28;20237;-66
2022/11/12 04:09:16;;;;;;;26.27;15.17;;;;;;;;;;5077302;28;20661;-66
2022/11/12 04:11:44;;;;;;;21.50;14.70;;;;;;;;;;5098892;28;20205;-66
2022/11/12 04:14:12;;;;;;;26.77;15.30;;;;;;;;;;5099763;28;20272;-66
2022/11/12 04:22:12;;;;;;;23.97;15.17;;;;;;;;;;5099817;28;20552;-66
2022/11/12 04:27:28;;;;;;;23.27;14.87;;;;;;;;;;5099681;28;20216;-66
2022/11/12 04:32:47;;;;;;;24.43;14.83;;;;;;;;;;5099770;28;20220;-66
2022/11/12 04:35:15;;;;;;;19.40;13.63;;;;;;;;;;5098527;28;20697;-66
2022/11/12 04:37:44;;;;;;;23.67;15.07;;;;;;;;;;5097855;28;20695;-67
2022/11/12 04:45:46;;;;;;;21.67;14.53;;;;;;;;;;5099474;28;20229;-66
2022/11/12 04:48:14;;;;;;;27.13;14.67;;;;;;;;;;5099552;28;20209;-66
2022/11/12 04:50:42;;;;;;;22.63;15.23;;;;;;;;;;5099399;28;20539;-66
2022/11/12 04:53:12;;;;;;;23.03;14.57;;;;;;;;;;5099311;28;20208;-66
2022/11/12 04:55:40;;;;;;;22.43;14.73;;;;;;;;;;5098863;28;20213;-66
2022/11/12 04:58:07;;;;;;;20.60;13.60;;;;;;;;;;5098853;28;20233;-66
2022/11/12 05:00:35;;;;;;;24.17;15.73;;;;;;;;;;5099267;28;20212;-66
2022/11/12 05:03:03;;;;;;;23.10;14.23;;;;;;;;;;5099077;28;20213;-66
2022/11/12 05:05:31;;;;;;;23.07;14.27;;;;;;;;;;5098540;28;20222;-66
2022/11/12 05:08:01;;;;;;;24.33;15.83;;;;;;;;;;5098760;28;20209;-66
2022/11/12 05:10:30;;;;;;;22.97;14.57;;;;;;;;;;5098767;28;20202;-66
2022/11/12 05:12:58;;;;;;;22.83;13.87;;;;;;;;;;5098685;28;20569;-66
2022/11/12 05:15:26;;;;;;;26.77;15.57;;;;;;;;;;5098849;28;20683;-66
2022/11/12 05:17:54;;;;;;;20.80;14.10;;;;;;;;;;5086600;28;20206;-66
2022/11/12 05:20:22;;;;;;;26.30;14.23;;;;;;;;;;5098657;28;20546;-66
2022/11/12 05:22:50;;;;;;;20.17;13.80;;;;;;;;;;5098768;28;20217;-66
2022/11/12 05:25:34;;;;;;;20.97;13.73;;;;;;;;;;5098663;28;20316;-66
2022/11/12 05:28:02;;;;;;;22.67;14.03;;;;;;;;;;5098469;28;20206;-65
2022/11/12 05:30:33;;;;;;;23.30;13.93;;;;;;;;;;5098459;28;20263;-66
2022/11/12 05:33:01;;;;;;;23.93;13.20;;;;;;;;;;5098514;28;20205;-66
2022/11/12 05:35:29;;;;;;;22.63;13.47;;;;;;;;;;5097812;28;20208;-66
2022/11/12 05:37:57;;;;;;;23.00;13.40;;;;;;;;;;5098479;28;20202;-66
2022/11/12 05:40:25;;;;;;;19.70;13.77;;;;;;;;;;5098297;28;20209;-66
2022/11/12 05:42:54;;;;;;;25.33;14.10;;;;;;;;;;5098273;28;20246;-66
2022/11/12 05:45:22;;;;;;;25.20;13.93;;;;;;;;;;5097610;28;20585;-66
2022/11/12 05:47:50;;;;;;;27.93;13.47;;;;;;;;;;5098294;28;20250;-66
2022/11/12 05:50:18;;;;;;;23.23;13.03;;;;;;;;;;5098522;28;20213;-65
2022/11/12 05:52:46;;;;;;;21.13;13.50;;;;;;;;;;5098261;28;20524;-66
2022/11/12 05:55:14;;;;;;;20.50;12.67;;;;;;;;;;5098048;28;20585;-66
2022/11/12 05:57:42;;;;;;;19.10;13.03;;;;;;;;;;5097452;28;20700;-66
2022/11/12 06:00:12;;;;;;;16.70;11.73;;;;;;;;;;5098029;28;20672;-66
2022/11/12 06:02:40;;;;;;;21.60;13.40;;;;;;;;;;5098798;28;20201;-66
2022/11/12 06:05:12;;;;;;;18.10;12.13;;;;;;;;;;5096561;28;20233;-66
2022/11/12 06:07:42;;;;;;;17.80;11.60;;;;;;;;;;5097394;28;20209;-66
2022/11/12 06:10:10;;;;;;;17.73;11.37;;;;;;;;;;5097979;28;20211;-66
2022/11/12 06:12:45;;;;;;;16.90;11.07;;;;;;;;;;5097662;28;20224;-66
2022/11/12 06:15:15;;;;;;;16.43;11.23;;;;;;;;;;5097714;28;20582;-66
2022/11/12 06:17:43;;;;;;;19.50;10.73;;;;;;;;;;5085884;28;20202;-66
2022/11/12 06:20:18;;;;;;;16.60;10.50;;;;;;;;;;5098446;28;20208;-66
2022/11/12 06:22:49;;;;;;;17.43;11.00;;;;;;;;;;5097617;28;20205;-66
2022/11/12 06:25:17;;;;;;;14.40;10.20;;;;;;;;;;5097832;28;20231;-66
2022/11/12 06:27:45;;;;;;;16.13;11.43;;;;;;;;;;5097296;28;20205;-66
2022/11/12 06:30:13;;;;;;;17.47;11.37;;;;;;;;;;5097769;28;20205;-66
2022/11/12 06:32:45;;;;;;;17.47;11.90;;;;;;;;;;5097520;28;20572;-66
2022/11/12 06:35:13;;;;;;;21.10;11.37;;;;;;;;;;5095180;28;20218;-65
2022/11/12 06:37:41;;;;;;;15.70;11.00;;;;;;;;;;5098592;28;20197;-62
2022/11/12 06:40:09;;;;;;;17.73;11.47;;;;;;;;;;5101815;28;20205;-61
2022/11/12 06:42:37;;;;;;;17.30;11.63;;;;;;;;;;5101654;28;20202;-62
2022/11/12 06:45:05;;;;;;;20.53;12.40;;;;;;;;;;5101999;28;20236;-61
2022/11/12 06:47:33;;;;;;;21.07;12.93;;;;;;;;;;5101979;28;20201;-62
2022/11/12 06:50:03;;;;;;;18.93;12.53;;;;;;;;;;5101943;28;20679;-62
2022/11/12 06:52:31;;;;;;;24.13;13.07;;;;;;;;;;5101487;28;20224;-62
2022/11/12 06:54:59;;;;;;;16.47;11.67;;;;;;;;;;5101740;28;20328;-62
2022/11/12 06:57:27;;;;;;;18.23;11.57;;;;;;;;;;5100939;28;20715;-62
2022/11/12 06:59:55;;;;;;;18.50;11.40;;;;;;;;;;5101555;28;20204;-62
2022/11/12 07:02:23;;;;;;;18.90;11.90;;;;;;;;;;5101413;28;20568;-62
2022/11/12 07:04:51;;;;;;;18.70;11.93;;;;;;;;;;5101413;28;20228;-62
2022/11/12 07:07:20;;;;;;;21.90;11.63;;;;;;;;;;5100840;28;20268;-62
2022/11/12 07:09:48;;;;;;;15.90;11.40;;;;;;;;;;5101294;28;20213;-62
2022/11/12 07:12:16;;;;;;;18.53;12.27;;;;;;;;;;5100926;28;20209;-62
2022/11/12 07:14:44;;;;;;;15.47;11.17;;;;;;;;;;5101106;28;20270;-62
2022/11/12 07:17:12;;;;;;;17.33;11.80;;;;;;;;;;5092638;28;20562;-61
2022/11/12 07:19:40;;;;;;;16.27;11.87;;;;;;;;;;5096625;28;20672;-62
2022/11/12 07:22:08;;;;;;;19.23;12.07;;;;;;;;;;5101210;28;20213;-61
2022/11/12 07:24:37;;;;;;;19.80;11.60;;;;;;;;;;5100723;28;20586;-62
2022/11/12 07:27:05;;;;;;;17.67;12.03;;;;;;;;;;5100832;28;20239;-61
2022/11/12 07:29:33;;;;;;;19.47;12.07;;;;;;;;;;5100621;28;20216;-61
2022/11/12 07:32:14;;;;;;;21.63;12.57;;;;;;;;;;5100721;28;20208;-62
2022/11/12 07:34:42;;;;;;;22.67;12.77;;;;;;;;;;5098547;28;20224;-62
2022/11/12 07:37:10;;;;;;;18.13;11.23;;;;;;;;;;5100536;28;20200;-62
2022/11/12 07:39:39;;;;;;;16.67;11.70;;;;;;;;;;5100778;28;20703;-61
2022/11/12 07:42:07;;;;;;;14.37;10.07;;;;;;;;;;5100343;28;20212;-62
2022/11/12 07:44:35;;;;;;;13.77;10.10;;;;;;;;;;5100444;28;20230;-62
2022/11/12 07:47:03;;;;;;;20.03;12.03;;;;;;;;;;5083025;28;20225;-61
2022/11/12 07:49:31;;;;;;;16.20;10.77;;;;;;;;;;5099393;28;20212;-62
2022/11/12 07:51:59;;;;;;;16.03;10.97;;;;;;;;;;5100548;28;20210;-62
2022/11/12 07:54:32;;;;;;;16.80;11.33;;;;;;;;;;5100563;28;20233;-65
2022/11/12 07:57:02;;;;;;;15.57;10.07;;;;;;;;;;5100019;28;20598;-65
2022/11/12 07:59:30;;;;;;;14.87;11.03;;;;;;;;;;5099990;28;20197;-65
2022/11/12 08:01:58;;;;;;;16.90;11.87;;;;;;;;;;5099984;28;20210;-65
2022/11/12 08:04:26;;;;;;;15.43;10.90;;;;;;;;;;5099997;28;20244;-65
2022/11/12 08:06:54;;;;;;;15.83;11.33;;;;;;;;;;5099712;28;20226;-65
2022/11/12 08:09:22;;;;;;;21.43;10.53;;;;;;;;;;5100173;28;20213;-65
2022/11/12 08:11:50;;;;;;;12.27;10.13;;;;;;;;;;5099705;28;20205;-65
2022/11/12 08:14:19;;;;;;;12.93;8.97;;;;;;;;;;5098980;28;20225;-65
2022/11/12 08:16:47;;;;;;;14.63;11.07;;;;;;;;;;5097165;28;20198;-65
2022/11/12 08:19:15;;;;;;;16.43;10.90;;;;;;;;;;5098014;28;20205;-65
2022/11/12 08:21:43;;;;;;;16.67;11.93;;;;;;;;;;5097069;28;20212;-65
2022/11/12 08:24:11;;;;;;;14.37;10.77;;;;;;;;;;5086575;28;20249;-65
2022/11/12 08:26:39;;;;;;;14.83;10.87;;;;;;;;;;5097566;28;20696;-65
2022/11/12 08:29:07;;;;;;;15.87;10.77;;;;;;;;;;5098072;28;20209;-65
2022/11/12 08:31:37;;;;;;;18.37;12.03;;;;;;;;;;5098951;28;20244;-65
2022/11/12 08:34:11;;;;;;;16.63;11.87;;;;;;;;;;5099709;28;20224;-65
2022/11/12 08:36:45;;;;;;;18.23;11.50;;;;;;;;;;5099464;28;20201;-65
2022/11/12 08:39:13;;;;;;;20.30;11.60;;;;;;;;;;5099250;28;20217;-65
2022/11/12 08:41:41;;;;;;;16.77;10.73;;;;;;;;;;5099329;28;20212;-65
2022/11/12 08:44:09;;;;;;;18.93;11.63;;;;;;;;;;5099324;28;20230;-65
2022/11/12 08:46:38;;;;;;;15.90;11.50;;;;;;;;;;5099158;28;20681;-65
2022/11/12 08:49:06;;;;;;;16.70;11.40;;;;;;;;;;5099168;28;20584;-65
2022/11/12 08:51:34;;;;;;;17.50;11.63;;;;;;;;;;5099341;28;20205;-65
2022/11/12 08:54:02;;;;;;;18.60;10.97;;;;;;;;;;5098935;28;20230;-65
2022/11/12 08:56:30;;;;;;;19.87;11.80;;;;;;;;;;5098662;28;20264;-65
2022/11/12 08:58:58;;;;;;;18.03;12.27;;;;;;;;;;5098772;28;20220;-65
2022/11/12 09:01:29;;;;;;;18.70;11.90;;;;;;;;;;5098895;28;20676;-65
2022/11/12 09:03:58;;;;;;;15.53;10.67;;;;;;;;;;5098893;28;20233;-65
2022/11/12 09:06:26;;;;;;;16.93;11.00;;;;;;;;;;5099071;28;20227;-65
2022/11/12 09:08:54;;;;;;;15.33;10.60;;;;;;;;;;5098955;28;20209;-65
2022/11/12 09:11:22;;;;;;;16.73;11.17;;;;;;;;;;5098560;28;20201;-65
2022/11/12 09:13:52;;;;;;;17.67;11.57;;;;;;;;;;5098963;28;20235;-65
2022/11/12 09:16:22;;;;;;;14.07;10.40;;;;;;;;;;5094790;28;20201;-65
2022/11/12 09:18:50;;;;;;;13.30;10.83;;;;;;;;;;5097835;28;20208;-65
2022/11/12 09:21:23;;;;;;;15.53;10.60;;;;;;;;;;5098832;28;20212;-65
2022/11/12 09:23:51;;;;;;;18.13;11.93;;;;;;;;;;5088491;28;20226;-65
2022/11/12 09:26:19;;;;;;;14.17;11.20;;;;;;;;;;5096937;28;20202;-65
2022/11/12 09:28:47;;;;;;;14.90;10.70;;;;;;;;;;5098048;28;20229;-65
2022/11/12 09:31:15;;;;;;;14.97;11.03;;;;;;;;;;5098693;28;20205;-65
2022/11/12 09:33:43;;;;;;;13.80;10.50;;;;;;;;;;5098741;28;20233;-65
2022/11/12 09:36:11;;;;;;;15.40;11.30;;;;;;;;;;5098417;28;20565;-65
2022/11/12 09:38:40;;;;;;;18.80;12.07;;;;;;;;;;5098404;28;20569;-65
2022/11/12 09:41:15;;;;;;;15.73;11.97;;;;;;;;;;5097981;28;20523;-65
2022/11/12 09:43:46;;;;;;;15.77;11.40;;;;;;;;;;5098160;28;20225;-65
2022/11/12 09:46:21;;;;;;;17.13;11.10;;;;;;;;;;5097526;28;20201;-65
2022/11/12 09:49:00;;;;;;;15.70;11.47;;;;;;;;;;5098202;28;20201;-65
2022/11/12 09:51:30;;;;;;;16.67;11.50;;;;;;;;;;5098114;28;20578;-65
2022/11/12 09:54:01;;;;;;;17.37;12.20;;;;;;;;;;5097766;28;20567;-65
2022/11/12 09:56:29;;;;;;;16.80;11.97;;;;;;;;;;5097610;28;20595;-65
2022/11/12 09:58:57;;;;;;;15.27;12.23;;;;;;;;;;5098164;28;20205;-65
2022/11/12 10:01:38;;;;;;;18.37;11.93;;;;;;;;;;5098021;28;20587;-65
2022/11/12 10:04:21;;;;;;;17.10;12.07;;;;;;;;;;5096917;28;20565;-65
2022/11/12 10:06:52;;;;;;;15.73;11.63;;;;;;;;;;5097790;28;20232;-65
2022/11/12 10:09:24;;;;;;;15.87;11.83;;;;;;;;;;5097361;28;20723;-65
2022/11/12 10:14:49;;;;;;;19.10;12.73;;;;;;;;;;5098180;28;20233;-65
2022/11/12 10:17:21;;;;;;;16.73;11.93;;;;;;;;;;5097821;28;20197;-65
2022/11/12 10:19:55;;;;;;;16.73;12.70;;;;;;;;;;5098023;28;20212;-65
2022/11/12 10:22:34;;;;;;;16.87;11.73;;;;;;;;;;5097892;28;20208;-65
2022/11/12 10:25:12;;;;;;;12.63;11.33;;;;;;;;;;5097877;28;20233;-65
2022/11/12 10:27:40;;;;;;;14.97;10.97;;;;;;;;;;5097613;28;20221;-65
2022/11/12 10:30:13;;;;;;;18.50;12.37;;;;;;;;;;5097887;28;20205;-65
2022/11/12 10:32:42;;;;;;;16.37;11.97;;;;;;;;;;5096843;28;20216;-65
2022/11/12 10:35:11;;;;;;;15.33;11.20;;;;;;;;;;5097772;28;20226;-65
2022/11/12 10:37:42;;;;;;;16.87;10.93;;;;;;;;;;5097460;28;20564;-65
2022/11/12 10:40:28;;;;;;;14.43;10.73;;;;;;;;;;5097694;28;20205;-65
2022/11/12 10:42:58;;;;;;;14.37;10.50;;;;;;;;;;5097632;28;20216;-65
2022/11/12 10:45:26;;;;;;;13.23;10.67;;;;;;;;;;5095648;28;20229;-65
2022/11/12 10:47:54;;;;;;;17.37;10.73;;;;;;;;;;5097230;28;20226;-64
2022/11/12 10:50:25;;;;;;;14.93;10.77;;;;;;;;;;5097087;28;20202;-63
2022/11/12 10:52:54;;;;;;;15.10;11.47;;;;;;;;;;5097215;28;20573;-64
2022/11/12 10:55:23;;;;;;;14.40;10.67;;;;;;;;;;5097063;28;20232;-65
2022/11/12 10:58:18;;;;;;;13.30;10.50;;;;;;;;;;5097521;28;20225;-64
2022/11/12 11:00:54;;;;;;;14.73;11.03;;;;;;;;;;5097616;28;20198;-65
2022/11/12 11:03:23;;;;;;;16.10;11.53;;;;;;;;;;5095363;28;20235;-65
2022/11/12 11:05:53;;;;;;;12.43;10.03;;;;;;;;;;5094653;28;20202;-65
2022/11/12 11:08:34;;;;;;;13.80;11.47;;;;;;;;;;5097282;28;20296;-64
2022/11/12 11:11:18;;;;;;;15.00;11.37;;;;;;;;;;5097167;28;20206;-65
2022/11/12 11:13:48;;;;;;;16.60;11.60;;;;;;;;;;5094380;28;20226;-65
2022/11/12 11:16:22;;;;;;;17.30;11.83;;;;;;;;;;5097422;28;20224;-64
2022/11/12 11:18:52;;;;;;;15.53;11.47;;;;;;;;;;5097316;28;20201;-65
2022/11/12 11:21:28;;;;;;;13.43;10.37;;;;;;;;;;5098658;28;20218;-64
2022/11/12 11:23:57;;;;;;;15.93;11.40;;;;;;;;;;5100800;28;20789;-65
2022/11/12 11:26:29;;;;;;;12.23;10.20;;;;;;;;;;5099006;28;20205;-65
2022/11/12 11:29:00;;;;;;;13.53;11.13;;;;;;;;;;5100856;28;20221;-63
2022/11/12 11:31:36;;;;;;;13.83;11.30;;;;;;;;;;5100784;28;20578;-63
2022/11/12 11:34:13;;;;;;;17.53;11.03;;;;;;;;;;5100802;28;20225;-64
2022/11/12 11:36:44;;;;;;;14.47;11.17;;;;;;;;;;5100678;28;20201;-65
2022/11/12 11:39:18;;;;;;;17.30;11.00;;;;;;;;;;5100850;28;20201;-64
2022/11/12 11:41:51;;;;;;;13.67;10.33;;;;;;;;;;5100324;28;20205;-65
2022/11/12 11:44:27;;;;;;;14.40;9.80;;;;;;;;;;5100591;28;20227;-63
2022/11/12 11:46:59;;;;;;;14.10;10.47;;;;;;;;;;5101005;28;20204;-63
2022/11/12 11:49:50;;;;;;;14.03;11.20;;;;;;;;;;5100882;28;20235;-65
2022/11/12 11:52:31;;;;;;;13.33;10.50;;;;;;;;;;5080737;28;20668;-63
2022/11/12 11:55:04;;;;;;;13.87;10.53;;;;;;;;;;5099507;28;20228;-63
2022/11/12 11:57:37;;;;;;;13.03;10.47;;;;;;;;;;5099948;28;20241;-64
2022/11/12 12:00:11;;;;;;;16.00;11.70;;;;;;;;;;5100412;28;20216;-64
2022/11/12 12:02:47;;;;;;;16.57;11.30;;;;;;;;;;5100332;28;20211;-63
2022/11/12 12:05:22;;;;;;;14.23;11.27;;;;;;;;;;5099964;28;20679;-64
2022/11/12 12:07:55;;;;;;;14.47;11.37;;;;;;;;;;5100279;28;20229;-63
2022/11/12 12:10:25;;;;;;;16.23;11.37;;;;;;;;;;5100023;28;20210;-65
2022/11/12 12:13:17;;;;;;;14.90;11.50;;;;;;;;;;5099755;28;20206;-63
2022/11/12 12:15:54;;;;;;;15.67;11.50;;;;;;;;;;5100274;28;20220;-64
2022/11/12 12:18:28;;;;;;;17.77;11.47;;;;;;;;;;5088673;28;20197;-63
2022/11/12 12:21:00;;;;;;;16.97;11.63;;;;;;;;;;5099812;28;20649;-64
2022/11/12 12:23:32;;;;;;;15.30;11.77;;;;;;;;;;5099941;28;20313;-65
2022/11/12 12:26:01;;;;;;;14.13;10.53;;;;;;;;;;5097481;28;20212;-65
2022/11/12 12:28:34;;;;;;;15.50;11.87;;;;;;;;;;5099524;28;20225;-64
2022/11/12 12:31:07;;;;;;;18.27;12.07;;;;;;;;;;5099860;28;20209;-65
2022/11/12 12:33:37;;;;;;;17.17;12.57;;;;;;;;;;5098998;28;20236;-65
2022/11/12 12:36:07;;;;;;;17.43;12.23;;;;;;;;;;5099797;28;20205;-65
2022/11/12 12:38:38;;;;;;;15.23;11.70;;;;;;;;;;5099783;28;20201;-65
2022/11/12 12:41:12;;;;;;;13.67;11.40;;;;;;;;;;5098215;28;20201;-64
2022/11/12 12:43:43;;;;;;;16.07;11.70;;;;;;;;;;5099298;28;20225;-65
2022/11/12 12:46:14;;;;;;;14.17;10.90;;;;;;;;;;5099492;28;20206;-65
2022/11/12 12:48:43;;;;;;;16.10;12.20;;;;;;;;;;5099134;28;20232;-65
2022/11/12 12:51:11;;;;;;;15.70;11.83;;;;;;;;;;5098524;28;20210;-64
2022/11/12 12:53:40;;;;;;;15.20;11.77;;;;;;;;;;5098744;28;20587;-64
2022/11/12 12:56:29;;;;;;;17.63;12.40;;;;;;;;;;5098930;28;20212;-65
2022/11/12 12:59:02;;;;;;;14.27;11.43;;;;;;;;;;5098721;28;20294;-65
2022/11/12 13:01:33;;;;;;;14.30;12.10;;;;;;;;;;5099360;28;20201;-65
2022/11/12 13:04:03;;;;;;;17.00;12.03;;;;;;;;;;5099252;28;20242;-62
2022/11/12 13:06:32;;;;;;;18.90;12.23;;;;;;;;;;5099062;28;20235;-61
2022/11/12 13:09:02;;;;;;;17.83;12.13;;;;;;;;;;5099005;28;20257;-62
2022/11/12 13:15:00;;;;;;;17.30;11.57;;;;;;;;;;5098611;28;20700;-62
2022/11/12 13:17:47;;;;;;;17.27;11.50;;;;;;;;;;5088539;28;20206;-63
2022/11/12 13:20:36;;;;;;;16.43;11.43;;;;;;;;;;5087338;28;20212;-62
2022/11/12 13:23:08;;;;;;;16.27;12.00;;;;;;;;;;5097615;28;20206;-62
2022/11/12 13:25:36;;;;;;;16.87;11.83;;;;;;;;;;5097513;28;20209;-63
2022/11/12 13:28:06;;;;;;;14.90;10.70;;;;;;;;;;5097883;28;20217;-62
2022/11/12 13:30:53;;;;;;;14.40;10.50;;;;;;;;;;5098306;28;20225;-64
2022/11/12 13:33:24;;;;;;;12.40;9.97;;;;;;;;;;5098443;28;20669;-62
2022/11/12 13:36:12;;;;;;;14.33;10.17;;;;;;;;;;5098493;28;20217;-62
2022/11/12 13:38:41;;;;;;;14.43;10.37;;;;;;;;;;5098166;28;20281;-62
2022/11/12 13:41:15;;;;;;;17.67;10.60;;;;;;;;;;5097703;28;20208;-63
2022/11/12 13:43:46;;;;;;;14.83;10.03;;;;;;;;;;5096920;28;20221;-63
2022/11/12 13:46:25;;;;;;;14.27;10.50;;;;;;;;;;5096872;28;20206;-62
2022/11/12 13:48:58;;;;;;;15.33;10.90;;;;;;;;;;5095720;28;20246;-62
2022/11/12 13:51:29;;;;;;;15.90;10.47;;;;;;;;;;5098644;28;20219;-62
2022/11/12 13:53:57;;;;;;;15.77;10.47;;;;;;;;;;5098317;28;20225;-66
2022/11/12 13:56:27;;;;;;;16.00;11.20;;;;;;;;;;5097381;28;20244;-66
2022/11/12 13:58:55;;;;;;;15.83;10.67;;;;;;;;;;5098225;28;20203;-66
2022/11/12 14:01:24;;;;;;;15.70;10.63;;;;;;;;;;5098222;28;20202;-64
2022/11/12 14:03:53;;;;;;;18.07;11.60;;;;;;;;;;5098085;28;20234;-64
2022/11/12 14:06:25;;;;;;;18.83;12.53;;;;;;;;;;5097658;28;20204;-64
2022/11/12 14:09:23;;;;;;;15.33;11.73;;;;;;;;;;5096571;28;20588;-65
2022/11/12 14:12:08;;;;;;;18.80;12.13;;;;;;;;;;5014369;28;20207;-63
2022/11/12 14:14:44;;;;;;;17.60;12.20;;;;;;;;;;5086633;28;20221;-63
2022/11/12 14:17:19;;;;;;;15.27;11.70;;;;;;;;;;5096313;28;20288;-63
2022/11/12 14:20:03;;;;;;;14.77;11.40;;;;;;;;;;5096677;28;20197;-65
2022/11/12 14:22:38;;;;;;;18.77;11.03;;;;;;;;;;5096587;28;20198;-64
2022/11/12 14:25:12;;;;;;;14.87;11.03;;;;;;;;;;5095147;28;20224;-65
2022/11/12 14:27:39;;;;;;;15.93;11.23;;;;;;;;;;5090965;28;20205;-65
2022/11/12 14:30:12;;;;;;;14.53;11.33;;;;;;;;;;5096108;28;20692;-65
2022/11/12 14:32:41;;;;;;;16.37;11.40;;;;;;;;;;5093981;28;20201;-64
2022/11/12 14:35:27;;;;;;;16.47;11.83;;;;;;;;;;5096567;28;20222;-63
2022/11/12 14:37:58;;;;;;;14.17;11.00;;;;;;;;;;5096293;28;20212;-63
2022/11/12 14:40:27;;;;;;;15.20;10.90;;;;;;;;;;5097155;28;20629;-64
2022/11/12 14:42:56;;;;;;;13.70;10.70;;;;;;;;;;5097118;28;20673;-64
2022/11/12 14:45:24;;;;;;;16.00;10.93;;;;;;;;;;5097030;28;20612;-64
2022/11/12 14:47:53;;;;;;;17.27;11.03;;;;;;;;;;5097503;28;20206;-64
2022/11/12 14:50:23;;;;;;;13.97;10.47;;;;;;;;;;5098127;28;20230;-64
2022/11/12 14:52:55;;;;;;;16.13;11.30;;;;;;;;;;5097444;28;20216;-64
2022/11/12 14:55:25;;;;;;;14.63;11.03;;;;;;;;;;5096606;28;20589;-64
2022/11/12 14:57:57;;;;;;;17.50;13.23;;;;;;;;;;5101034;28;20247;-65
2022/11/12 15:00:40;;;;;;;15.37;11.53;;;;;;;;;;5101267;28;20201;-65
2022/11/12 15:03:12;;;;;;;19.87;13.63;;;;;;;;;;5098538;28;20201;-65